sensor_id;sensor_type;location;lat;lon;timestamp;pressure;altitude;pressure_sealevel;temperature;humidity
72409;BME280;60402;48.082;11.628;2023-03-01T00:01:31;95866.13;;;0.08;92.58
72409;BME280;60402;48.082;11.628;2023-03-01T00:03:58;95867.63;;;0.02;92.76
72409;BME280;60402;48.082;11.628;2023-03-01T00:06:24;95866.81;;;0.01;92.98
72409;BME280;60402;48.082;11.628;2023-03-01T00:08:50;95834.59;;;-0.23;92.97
72409;BME280;60402;48.082;11.628;2023-03-01T00:11:20;95833.53;;;0.05;92.53
72409;BME280;60402;48.082;11.628;2023-03-01T00:13:47;95827.69;;;-0.10;92.36
72409;BME280;60402;48.082;11.628;2023-03-01T00:16:19;95832.75;;;-0.15;91.99
72409;BME280;60402;48.082;11.628;2023-03-01T00:18:45;95855.47;;;0.10;92.63
72409;BME280;60402;48.082;11.628;2023-03-01T00:21:11;95841.06;;;-0.15;93.35
72409;BME280;60402;48.082;11.628;2023-03-01T00:23:37;95853.13;;;-0.08;92.64
72409;BME280;60402;48.082;11.628;2023-03-01T00:26:06;95867.63;;;0.02;92.86
72409;BME280;60402;48.082;11.628;2023-03-01T00:28:32;95860.88;;;0.03;92.28
72409;BME280;60402;48.082;11.628;2023-03-01T00:31:06;95856.03;;;-0.01;93.39
72409;BME280;60402;48.082;11.628;2023-03-01T00:33:32;95841.13;;;0.08;92.42
72409;BME280;60402;48.082;11.628;2023-03-01T00:35:58;95852.69;;;0.10;92.05
72409;BME280;60402;48.082;11.628;2023-03-01T00:38:24;95853.13;;;-0.08;93.43
72409;BME280;60402;48.082;11.628;2023-03-01T00:40:49;95851.59;;;-0.05;92.90
72409;BME280;60402;48.082;11.628;2023-03-01T00:43:15;95840.72;;;0.06;92.29
72409;BME280;60402;48.082;11.628;2023-03-01T00:45:40;95816.09;;;-0.35;93.99
72409;BME280;60402;48.082;11.628;2023-03-01T00:48:05;95837.78;;;-0.02;93.08
72409;BME280;60402;48.082;11.628;2023-03-01T00:50:31;95819.44;;;-0.26;93.33
72409;BME280;60402;48.082;11.628;2023-03-01T00:52:56;95822.97;;;-0.09;93.13
72409;BME280;60402;48.082;11.628;2023-03-01T00:55:22;95828.03;;;0.08;92.59
72409;BME280;60402;48.082;11.628;2023-03-01T00:57:48;95833.25;;;0.10;92.69
72409;BME280;60402;48.082;11.628;2023-03-01T01:00:13;95819.09;;;-0.05;91.93
72409;BME280;60402;48.082;11.628;2023-03-01T01:02:38;95824.16;;;0.13;92.26
72409;BME280;60402;48.082;11.628;2023-03-01T01:05:04;95808.81;;;-0.01;92.52
72409;BME280;60402;48.082;11.628;2023-03-01T01:07:29;95813.31;;;-0.15;92.52
72409;BME280;60402;48.082;11.628;2023-03-01T01:09:55;95812.13;;;-0.34;93.73
72409;BME280;60402;48.082;11.628;2023-03-01T01:12:21;95802.41;;;-0.24;93.59
72409;BME280;60402;48.082;11.628;2023-03-01T01:14:46;95792.91;;;-0.04;92.82
72409;BME280;60402;48.082;11.628;2023-03-01T01:17:11;95797.69;;;-0.01;91.84
72409;BME280;60402;48.082;11.628;2023-03-01T01:19:37;95796.59;;;0.04;92.02
72409;BME280;60402;48.082;11.628;2023-03-01T01:22:02;95785.75;;;-0.05;91.53
72409;BME280;60402;48.082;11.628;2023-03-01T01:24:28;95800.84;;;-0.02;92.09
72409;BME280;60402;48.082;11.628;2023-03-01T01:26:53;95776.16;;;-0.07;92.65
72409;BME280;60402;48.082;11.628;2023-03-01T01:29:19;95800.94;;;0.02;92.28
72409;BME280;60402;48.082;11.628;2023-03-01T01:31:44;95788.78;;;-0.10;92.86
72409;BME280;60402;48.082;11.628;2023-03-01T01:34:18;95800.06;;;-0.03;92.26
72409;BME280;60402;48.082;11.628;2023-03-01T01:36:47;95783.06;;;-0.20;92.93
72409;BME280;60402;48.082;11.628;2023-03-01T01:39:13;95765.03;;;-0.07;92.45
72409;BME280;60402;48.082;11.628;2023-03-01T01:41:40;95773.47;;;-0.04;92.25
72409;BME280;60402;48.082;11.628;2023-03-01T01:44:17;95782.03;;;-0.12;92.57
72409;BME280;60402;48.082;11.628;2023-03-01T01:46:53;95773.19;;;-0.18;92.74
72409;BME280;60402;48.082;11.628;2023-03-01T01:49:24;95760.19;;;-0.33;92.29
72409;BME280;60402;48.082;11.628;2023-03-01T01:51:56;95768.06;;;-0.16;93.17
72409;BME280;60402;48.082;11.628;2023-03-01T01:54:29;95750.91;;;-0.21;92.20
72409;BME280;60402;48.082;11.628;2023-03-01T01:57:01;95769.72;;;-0.11;92.14
72409;BME280;60402;48.082;11.628;2023-03-01T01:59:30;95753.53;;;-0.29;92.46
72409;BME280;60402;48.082;11.628;2023-03-01T02:01:59;95763.03;;;-0.30;92.62
72409;BME280;60402;48.082;11.628;2023-03-01T02:04:27;95745.88;;;-0.35;92.63
72409;BME280;60402;48.082;11.628;2023-03-01T02:06:59;95745.28;;;-0.25;92.07
72409;BME280;60402;48.082;11.628;2023-03-01T02:09:26;95759.91;;;-0.28;92.77
72409;BME280;60402;48.082;11.628;2023-03-01T02:11:53;95763.22;;;-0.42;92.72
72409;BME280;60402;48.082;11.628;2023-03-01T02:14:18;95762.72;;;-0.24;92.87
72409;BME280;60402;48.082;11.628;2023-03-01T02:16:44;95764.22;;;-0.31;92.84
72409;BME280;60402;48.082;11.628;2023-03-01T02:19:15;95757.97;;;-0.24;92.77
72409;BME280;60402;48.082;11.628;2023-03-01T02:24:19;95732.97;;;-0.24;92.52
72409;BME280;60402;48.082;11.628;2023-03-01T02:26:51;95738.84;;;-0.29;92.75
72409;BME280;60402;48.082;11.628;2023-03-01T02:29:20;95725.56;;;-0.39;92.00
72409;BME280;60402;48.082;11.628;2023-03-01T02:31:46;95752.19;;;-0.15;92.50
72409;BME280;60402;48.082;11.628;2023-03-01T02:34:15;95731.13;;;-0.39;92.75
72409;BME280;60402;48.082;11.628;2023-03-01T02:36:51;95742.88;;;-0.27;92.75
72409;BME280;60402;48.082;11.628;2023-03-01T02:39:22;95740.97;;;-0.22;92.74
72409;BME280;60402;48.082;11.628;2023-03-01T02:41:51;95723.34;;;-0.30;92.47
72409;BME280;60402;48.082;11.628;2023-03-01T02:44:17;95731.16;;;-0.59;93.02
72409;BME280;60402;48.082;11.628;2023-03-01T02:46:46;95713.31;;;-0.58;92.96
72409;BME280;60402;48.082;11.628;2023-03-01T02:49:27;95724.03;;;-0.37;92.61
72409;BME280;60402;48.082;11.628;2023-03-01T02:54:59;95740.63;;;-0.40;92.90
72409;BME280;60402;48.082;11.628;2023-03-01T02:57:27;95712.13;;;-0.57;92.85
72409;BME280;60402;48.082;11.628;2023-03-01T02:59:54;95725.44;;;-0.46;92.63
72409;BME280;60402;48.082;11.628;2023-03-01T03:02:26;95744.69;;;-0.34;92.81
72409;BME280;60402;48.082;11.628;2023-03-01T03:05:24;95707.84;;;-0.54;92.45
72409;BME280;60402;48.082;11.628;2023-03-01T03:07:51;95714.66;;;-0.52;92.88
72409;BME280;60402;48.082;11.628;2023-03-01T03:10:20;95728.53;;;-0.29;91.91
72409;BME280;60402;48.082;11.628;2023-03-01T03:12:58;95737.69;;;-0.47;92.86
72409;BME280;60402;48.082;11.628;2023-03-01T03:15:24;95722.69;;;-0.66;93.40
72409;BME280;60402;48.082;11.628;2023-03-01T03:17:51;95741.34;;;-0.43;93.38
72409;BME280;60402;48.082;11.628;2023-03-01T03:20:18;95722.72;;;-0.43;91.63
72409;BME280;60402;48.082;11.628;2023-03-01T03:22:46;95739.81;;;-0.41;91.75
72409;BME280;60402;48.082;11.628;2023-03-01T03:25:11;95726.88;;;-0.53;91.35
72409;BME280;60402;48.082;11.628;2023-03-01T03:27:38;95747.56;;;-0.50;91.82
72409;BME280;60402;48.082;11.628;2023-03-01T03:30:06;95725.59;;;-0.59;91.76
72409;BME280;60402;48.082;11.628;2023-03-01T03:32:36;95744.66;;;-0.57;91.90
72409;BME280;60402;48.082;11.628;2023-03-01T03:35:03;95719.47;;;-0.68;92.42
72409;BME280;60402;48.082;11.628;2023-03-01T03:37:33;95701.50;;;-0.55;91.56
72409;BME280;60402;48.082;11.628;2023-03-01T03:40:17;95710.91;;;-0.59;91.79
72409;BME280;60402;48.082;11.628;2023-03-01T03:42:42;95726.47;;;-0.55;91.78
72409;BME280;60402;48.082;11.628;2023-03-01T03:45:08;95706.38;;;-0.67;92.02
72409;BME280;60402;48.082;11.628;2023-03-01T03:47:33;95733.19;;;-0.56;92.51
72409;BME280;60402;48.082;11.628;2023-03-01T03:49:58;95719.03;;;-0.50;91.80
72409;BME280;60402;48.082;11.628;2023-03-01T03:52:24;95706.53;;;-0.60;91.97
72409;BME280;60402;48.082;11.628;2023-03-01T03:54:49;95700.25;;;-0.77;92.11
72409;BME280;60402;48.082;11.628;2023-03-01T03:57:14;95715.09;;;-0.69;92.34
72409;BME280;60402;48.082;11.628;2023-03-01T03:59:40;95715.66;;;-0.60;92.13
72409;BME280;60402;48.082;11.628;2023-03-01T04:02:05;95704.78;;;-0.68;92.02
72409;BME280;60402;48.082;11.628;2023-03-01T04:04:30;95695.59;;;-0.72;92.07
72409;BME280;60402;48.082;11.628;2023-03-01T04:06:56;95704.59;;;-0.79;92.49
72409;BME280;60402;48.082;11.628;2023-03-01T04:09:21;95698.81;;;-0.70;91.90
72409;BME280;60402;48.082;11.628;2023-03-01T04:11:46;95693.97;;;-0.73;91.90
72409;BME280;60402;48.082;11.628;2023-03-01T04:14:11;95690.63;;;-0.83;91.64
72409;BME280;60402;48.082;11.628;2023-03-01T04:16:37;95707.06;;;-0.74;91.48
72409;BME280;60402;48.082;11.628;2023-03-01T04:19:02;95687.44;;;-0.85;92.06
72409;BME280;60402;48.082;11.628;2023-03-01T04:21:27;95693.78;;;-0.84;92.04
72409;BME280;60402;48.082;11.628;2023-03-01T04:23:53;95700.78;;;-0.90;92.37
72409;BME280;60402;48.082;11.628;2023-03-01T04:26:19;95708.47;;;-0.84;92.46
72409;BME280;60402;48.082;11.628;2023-03-01T04:28:50;95692.59;;;-0.83;92.67
72409;BME280;60402;48.082;11.628;2023-03-01T04:31:18;95700.78;;;-0.90;92.38
72409;BME280;60402;48.082;11.628;2023-03-01T04:33:47;95698.81;;;-0.70;92.49
72409;BME280;60402;48.082;11.628;2023-03-01T04:36:14;95703.09;;;-0.73;92.16
72409;BME280;60402;48.082;11.628;2023-03-01T04:38:40;95689.22;;;-0.73;91.87
72409;BME280;60402;48.082;11.628;2023-03-01T04:41:10;95678.44;;;-0.97;92.28
72409;BME280;60402;48.082;11.628;2023-03-01T04:43:36;95690.34;;;-0.97;92.17
72409;BME280;60402;48.082;11.628;2023-03-01T04:46:03;95674.13;;;-1.14;92.40
72409;BME280;60402;48.082;11.628;2023-03-01T04:48:30;95663.13;;;-1.11;92.61
72409;BME280;60402;48.082;11.628;2023-03-01T04:50:55;95676.09;;;-1.15;92.28
72409;BME280;60402;48.082;11.628;2023-03-01T04:53:20;95695.69;;;-0.88;91.80
72409;BME280;60402;48.082;11.628;2023-03-01T04:55:46;95677.28;;;-1.16;92.67
72409;BME280;60402;48.082;11.628;2023-03-01T04:58:11;95674.88;;;-1.17;92.09
72409;BME280;60402;48.082;11.628;2023-03-01T05:00:36;95671.66;;;-1.19;92.49
72409;BME280;60402;48.082;11.628;2023-03-01T05:03:02;95683.91;;;-1.01;92.42
72409;BME280;60402;48.082;11.628;2023-03-01T05:05:32;95677.28;;;-1.16;92.94
72409;BME280;60402;48.082;11.628;2023-03-01T05:08:00;95681.16;;;-1.01;92.18
72409;BME280;60402;48.082;11.628;2023-03-01T05:10:28;95690.25;;;-1.00;92.55
72409;BME280;60402;48.082;11.628;2023-03-01T05:12:57;95685.44;;;-1.04;93.00
72409;BME280;60402;48.082;11.628;2023-03-01T05:15:23;95657.41;;;-1.18;92.35
72409;BME280;60402;48.082;11.628;2023-03-01T05:17:52;95684.63;;;-1.04;92.67
72409;BME280;60402;48.082;11.628;2023-03-01T05:20:19;95670.06;;;-1.20;92.92
72409;BME280;60402;48.082;11.628;2023-03-01T05:22:48;95686.91;;;-1.10;93.67
72409;BME280;60402;48.082;11.628;2023-03-01T05:25:13;95686.53;;;-1.27;93.56
72409;BME280;60402;48.082;11.628;2023-03-01T05:27:39;95655.06;;;-1.55;94.02
72409;BME280;60402;48.082;11.628;2023-03-01T05:30:04;95658.28;;;-1.33;93.56
72409;BME280;60402;48.082;11.628;2023-03-01T05:32:42;95680.16;;;-1.28;93.60
72409;BME280;60402;48.082;11.628;2023-03-01T05:35:16;95659.75;;;-1.39;93.34
72409;BME280;60402;48.082;11.628;2023-03-01T05:37:43;95684.28;;;-1.22;92.97
72409;BME280;60402;48.082;11.628;2023-03-01T05:40:14;95692.53;;;-1.25;93.38
72409;BME280;60402;48.082;11.628;2023-03-01T05:42:54;95672.28;;;-1.45;93.81
72409;BME280;60402;48.082;11.628;2023-03-01T05:45:21;95663.75;;;-1.37;93.63
72409;BME280;60402;48.082;11.628;2023-03-01T05:47:48;95672.72;;;-1.43;93.16
72409;BME280;60402;48.082;11.628;2023-03-01T05:50:17;95671.13;;;-1.44;94.04
72409;BME280;60402;48.082;11.628;2023-03-01T05:52:47;95665.66;;;-1.41;94.35
72409;BME280;60402;48.082;11.628;2023-03-01T05:55:15;95671.56;;;-1.42;93.67
72409;BME280;60402;48.082;11.628;2023-03-01T05:57:40;95658.06;;;-1.44;93.90
72409;BME280;60402;48.082;11.628;2023-03-01T06:00:06;95681.22;;;-1.36;94.04
72409;BME280;60402;48.082;11.628;2023-03-01T06:02:32;95647.84;;;-1.59;93.45
72409;BME280;60402;48.082;11.628;2023-03-01T06:04:57;95659.56;;;-1.46;94.32
72409;BME280;60402;48.082;11.628;2023-03-01T06:07:23;95682.28;;;-1.41;93.90
72409;BME280;60402;48.082;11.628;2023-03-01T06:09:48;95684.38;;;-1.53;94.68
72409;BME280;60402;48.082;11.628;2023-03-01T06:12:13;95662.91;;;-1.57;94.09
72409;BME280;60402;48.082;11.628;2023-03-01T06:14:39;95692.13;;;-1.43;94.45
72409;BME280;60402;48.082;11.628;2023-03-01T06:17:04;95681.09;;;-1.59;93.90
72409;BME280;60402;48.082;11.628;2023-03-01T06:19:29;95689.91;;;-1.53;94.27
72409;BME280;60402;48.082;11.628;2023-03-01T06:21:54;95666.81;;;-1.77;95.50
72409;BME280;60402;48.082;11.628;2023-03-01T06:24:20;95682.44;;;-1.69;94.42
72409;BME280;60402;48.082;11.628;2023-03-01T06:26:45;95685.88;;;-1.56;94.78
72409;BME280;60402;48.082;11.628;2023-03-01T06:29:10;95668.13;;;-1.71;94.89
72409;BME280;60402;48.082;11.628;2023-03-01T06:31:36;95658.50;;;-1.77;95.41
72409;BME280;60402;48.082;11.628;2023-03-01T06:34:02;95698.09;;;-1.41;94.61
72409;BME280;60402;48.082;11.628;2023-03-01T06:36:27;95686.44;;;-1.50;94.95
72409;BME280;60402;48.082;11.628;2023-03-01T06:38:52;95669.22;;;-1.40;94.16
72409;BME280;60402;48.082;11.628;2023-03-01T06:41:18;95676.50;;;-1.51;94.45
72409;BME280;60402;48.082;11.628;2023-03-01T06:43:43;95663.56;;;-1.63;94.79
72409;BME280;60402;48.082;11.628;2023-03-01T06:46:08;95664.56;;;-1.71;94.64
72409;BME280;60402;48.082;11.628;2023-03-01T06:48:34;95682.22;;;-1.44;95.00
72409;BME280;60402;48.082;11.628;2023-03-01T06:51:00;95698.84;;;-1.60;95.60
72409;BME280;60402;48.082;11.628;2023-03-01T06:53:29;95689.75;;;-1.61;95.24
72409;BME280;60402;48.082;11.628;2023-03-01T06:55:58;95684.00;;;-1.52;95.13
72409;BME280;60402;48.082;11.628;2023-03-01T06:58:25;95678.03;;;-1.54;94.56
72409;BME280;60402;48.082;11.628;2023-03-01T07:00:51;95682.88;;;-1.67;95.62
72409;BME280;60402;48.082;11.628;2023-03-01T07:03:16;95686.38;;;-1.35;95.16
72409;BME280;60402;48.082;11.628;2023-03-01T07:05:42;95669.34;;;-1.52;94.96
72409;BME280;60402;48.082;11.628;2023-03-01T07:08:07;95669.72;;;-1.54;95.19
72409;BME280;60402;48.082;11.628;2023-03-01T07:10:33;95675.06;;;-1.45;94.87
72409;BME280;60402;48.082;11.628;2023-03-01T07:12:58;95655.06;;;-1.55;94.83
72409;BME280;60402;48.082;11.628;2023-03-01T07:15:25;95686.97;;;-1.25;94.96
72409;BME280;60402;48.082;11.628;2023-03-01T07:17:50;95686.31;;;-1.19;94.38
72409;BME280;60402;48.082;11.628;2023-03-01T07:20:17;95685.50;;;-1.19;94.62
72409;BME280;60402;48.082;11.628;2023-03-01T07:22:43;95688.50;;;-1.28;94.55
72409;BME280;60402;48.082;11.628;2023-03-01T07:25:09;95673.69;;;-1.36;94.70
72409;BME280;60402;48.082;11.628;2023-03-01T07:27:35;95647.47;;;-1.58;94.67
72409;BME280;60402;48.082;11.628;2023-03-01T07:30:00;95677.25;;;-1.35;94.69
72409;BME280;60402;48.082;11.628;2023-03-01T07:32:25;95659.53;;;-1.31;94.54
72409;BME280;60402;48.082;11.628;2023-03-01T07:34:51;95680.13;;;-1.12;93.52
72409;BME280;60402;48.082;11.628;2023-03-01T07:37:16;95666.59;;;-1.14;94.09
72409;BME280;60402;48.082;11.628;2023-03-01T07:39:42;95666.31;;;-1.09;94.26
72409;BME280;60402;48.082;11.628;2023-03-01T07:42:07;95654.88;;;-1.26;94.42
72409;BME280;60402;48.082;11.628;2023-03-01T07:44:33;95660.47;;;-1.42;95.20
72409;BME280;60402;48.082;11.628;2023-03-01T07:46:59;95644.72;;;-1.19;93.62
72409;BME280;60402;48.082;11.628;2023-03-01T07:49:24;95646.97;;;-1.24;94.79
72409;BME280;60402;48.082;11.628;2023-03-01T07:51:51;95667.34;;;-0.97;94.12
72409;BME280;60402;48.082;11.628;2023-03-01T07:54:17;95670.34;;;-1.06;94.76
72409;BME280;60402;48.082;11.628;2023-03-01T07:56:43;95662.03;;;-1.06;94.75
72409;BME280;60402;48.082;11.628;2023-03-01T07:59:09;95640.72;;;-1.02;94.62
72409;BME280;60402;48.082;11.628;2023-03-01T08:01:34;95669.09;;;-1.28;94.53
72409;BME280;60402;48.082;11.628;2023-03-01T08:04:00;95668.44;;;-1.21;94.97
72409;BME280;60402;48.082;11.628;2023-03-01T08:06:27;95662.44;;;-1.04;94.42
72409;BME280;60402;48.082;11.628;2023-03-01T08:08:52;95663.47;;;-0.93;94.40
72409;BME280;60402;48.082;11.628;2023-03-01T08:11:17;95645.09;;;-1.20;94.20
72409;BME280;60402;48.082;11.628;2023-03-01T08:13:43;95647.94;;;-1.17;93.67
72409;BME280;60402;48.082;11.628;2023-03-01T08:16:13;95661.22;;;-0.87;93.36
72409;BME280;60402;48.082;11.628;2023-03-01T08:18:39;95642.88;;;-0.92;92.90
72409;BME280;60402;48.082;11.628;2023-03-01T08:21:06;95656.69;;;-0.95;93.63
72409;BME280;60402;48.082;11.628;2023-03-01T08:23:32;95660.78;;;-1.09;93.55
72409;BME280;60402;48.082;11.628;2023-03-01T08:26:09;95623.69;;;-1.00;93.21
72409;BME280;60402;48.082;11.628;2023-03-01T08:28:35;95661.13;;;-0.91;93.40
72409;BME280;60402;48.082;11.628;2023-03-01T08:31:00;95630.78;;;-1.22;94.24
72409;BME280;60402;48.082;11.628;2023-03-01T08:33:26;95633.63;;;-1.19;93.86
72409;BME280;60402;48.082;11.628;2023-03-01T08:35:51;95654.84;;;-0.68;92.21
72409;BME280;60402;48.082;11.628;2023-03-01T08:38:17;95653.31;;;-0.66;92.23
72409;BME280;60402;48.082;11.628;2023-03-01T08:40:42;95619.91;;;-0.92;92.62
72409;BME280;60402;48.082;11.628;2023-03-01T08:43:07;95638.78;;;-0.79;93.01
72409;BME280;60402;48.082;11.628;2023-03-01T08:45:33;95629.53;;;-0.86;93.12
72409;BME280;60402;48.082;11.628;2023-03-01T08:47:58;95625.34;;;-0.77;92.50
72409;BME280;60402;48.082;11.628;2023-03-01T08:50:24;95637.13;;;-0.83;92.40
72409;BME280;60402;48.082;11.628;2023-03-01T08:52:49;95599.84;;;-1.05;93.09
72409;BME280;60402;48.082;11.628;2023-03-01T08:55:15;95616.41;;;-0.89;92.57
72409;BME280;60402;48.082;11.628;2023-03-01T08:57:42;95629.00;;;-0.49;91.99
72409;BME280;60402;48.082;11.628;2023-03-01T09:00:09;95624.41;;;-0.42;91.89
72409;BME280;60402;48.082;11.628;2023-03-01T09:02:34;95626.09;;;-0.57;91.62
72409;BME280;60402;48.082;11.628;2023-03-01T09:04:59;95622.97;;;-0.55;91.57
72409;BME280;60402;48.082;11.628;2023-03-01T09:07:26;95629.56;;;-0.63;92.18
72409;BME280;60402;48.082;11.628;2023-03-01T09:09:53;95619.00;;;-0.77;92.54
72409;BME280;60402;48.082;11.628;2023-03-01T09:12:19;95605.31;;;-0.66;92.10
72409;BME280;60402;48.082;11.628;2023-03-01T09:14:44;95626.00;;;-0.18;90.84
72409;BME280;60402;48.082;11.628;2023-03-01T09:17:10;95607.91;;;-0.31;90.10
72409;BME280;60402;48.082;11.628;2023-03-01T09:19:35;95615.19;;;-0.46;90.27
72409;BME280;60402;48.082;11.628;2023-03-01T09:22:03;95627.03;;;-0.49;91.39
72409;BME280;60402;48.082;11.628;2023-03-01T09:24:28;95624.81;;;-0.40;91.81
72409;BME280;60402;48.082;11.628;2023-03-01T09:26:54;95617.97;;;0.04;90.03
72409;BME280;60402;48.082;11.628;2023-03-01T09:29:20;95601.34;;;-0.19;89.84
72409;BME280;60402;48.082;11.628;2023-03-01T09:31:46;95604.00;;;-0.04;89.90
72409;BME280;60402;48.082;11.628;2023-03-01T09:34:11;95600.38;;;0.19;88.76
72409;BME280;60402;48.082;11.628;2023-03-01T09:36:37;95620.38;;;0.32;88.94
72409;BME280;60402;48.082;11.628;2023-03-01T09:39:03;95596.19;;;0.06;88.32
72409;BME280;60402;48.082;11.628;2023-03-01T09:41:58;95616.19;;;0.15;88.53
72409;BME280;60402;48.082;11.628;2023-03-01T09:44:40;95582.84;;;0.15;88.85
72409;BME280;60402;48.082;11.628;2023-03-01T09:47:19;95611.63;;;0.30;88.27
72409;BME280;60402;48.082;11.628;2023-03-01T09:50:00;95618.31;;;0.25;88.95
72409;BME280;60402;48.082;11.628;2023-03-01T09:52:38;95625.03;;;0.50;88.10
72409;BME280;60402;48.082;11.628;2023-03-01T09:55:14;95618.47;;;0.36;86.87
72409;BME280;60402;48.082;11.628;2023-03-01T09:58:05;95601.50;;;0.14;88.05
72409;BME280;60402;48.082;11.628;2023-03-01T10:00:49;95602.81;;;-0.03;88.34
72409;BME280;60402;48.082;11.628;2023-03-01T10:03:21;95618.72;;;0.27;87.97
72409;BME280;60402;48.082;11.628;2023-03-01T10:08:38;95590.91;;;-0.03;88.67
72409;BME280;60402;48.082;11.628;2023-03-01T10:11:18;95588.81;;;0.17;88.81
72409;BME280;60402;48.082;11.628;2023-03-01T10:16:38;95614.28;;;0.19;88.93
72409;BME280;60402;48.082;11.628;2023-03-01T10:19:06;95595.75;;;0.30;88.31
72409;BME280;60402;48.082;11.628;2023-03-01T10:21:41;95598.97;;;0.06;90.26
72409;BME280;60402;48.082;11.628;2023-03-01T10:24:14;95592.44;;;0.21;89.70
72409;BME280;60402;48.082;11.628;2023-03-01T10:29:17;95586.72;;;0.67;88.09
72409;BME280;60402;48.082;11.628;2023-03-01T10:31:46;95605.13;;;0.79;86.91
72409;BME280;60402;48.082;11.628;2023-03-01T10:34:21;95581.13;;;0.33;87.24
72409;BME280;60402;48.082;11.628;2023-03-01T10:36:48;95609.66;;;0.30;87.58
72409;BME280;60402;48.082;11.628;2023-03-01T10:39:17;95596.53;;;0.57;87.93
72409;BME280;60402;48.082;11.628;2023-03-01T10:41:59;95604.28;;;0.74;87.13
72409;BME280;60402;48.082;11.628;2023-03-01T10:44:45;95602.63;;;0.70;87.14
72409;BME280;60402;48.082;11.628;2023-03-01T10:47:23;95573.44;;;0.53;86.55
72409;BME280;60402;48.082;11.628;2023-03-01T10:49:57;95578.84;;;1.06;86.78
72409;BME280;60402;48.082;11.628;2023-03-01T10:52:27;95556.38;;;0.88;86.64
72409;BME280;60402;48.082;11.628;2023-03-01T10:54:59;95563.28;;;1.01;86.71
72409;BME280;60402;48.082;11.628;2023-03-01T10:57:32;95574.41;;;1.01;85.59
72409;BME280;60402;48.082;11.628;2023-03-01T11:00:19;95517.44;;;0.88;85.80
72409;BME280;60402;48.082;11.628;2023-03-01T11:03:02;95559.50;;;1.61;84.37
72409;BME280;60402;48.082;11.628;2023-03-01T11:05:29;95527.16;;;1.49;83.49
72409;BME280;60402;48.082;11.628;2023-03-01T11:07:59;95548.88;;;1.30;83.01
72409;BME280;60402;48.082;11.628;2023-03-01T11:10:43;95494.81;;;0.93;85.12
72409;BME280;60402;48.082;11.628;2023-03-01T11:13:15;95542.44;;;1.66;83.22
72409;BME280;60402;48.082;11.628;2023-03-01T11:15:42;95514.91;;;1.58;83.28
72409;BME280;60402;48.082;11.628;2023-03-01T11:18:22;95486.91;;;0.95;83.81
72409;BME280;60402;48.082;11.628;2023-03-01T11:20:49;95518.72;;;0.98;84.83
72409;BME280;60402;48.082;11.628;2023-03-01T11:23:17;95525.25;;;1.16;84.81
72409;BME280;60402;48.082;11.628;2023-03-01T11:25:47;95521.13;;;1.40;84.35
72409;BME280;60402;48.082;11.628;2023-03-01T11:28:17;95515.53;;;1.40;83.15
72409;BME280;60402;48.082;11.628;2023-03-01T11:38:29;95476.16;;;1.38;84.24
72409;BME280;60402;48.082;11.628;2023-03-01T11:41:03;95473.03;;;1.43;83.84
72409;BME280;60402;48.082;11.628;2023-03-01T11:43:36;95500.66;;;1.66;83.11
72409;BME280;60402;48.082;11.628;2023-03-01T11:48:57;95489.59;;;1.81;83.20
72409;BME280;60402;48.082;11.628;2023-03-01T12:00:29;95485.81;;;1.55;84.94
72409;BME280;60402;48.082;11.628;2023-03-01T12:06:05;95472.47;;;1.78;82.98
72409;BME280;60402;48.082;11.628;2023-03-01T12:08:46;95447.31;;;1.64;83.32
72409;BME280;60402;48.082;11.628;2023-03-01T12:11:25;95470.56;;;1.90;83.42
72409;BME280;60402;48.082;11.628;2023-03-01T12:14:03;95422.41;;;1.96;81.65
72409;BME280;60402;48.082;11.628;2023-03-01T12:19:42;95446.22;;;2.60;79.59
72409;BME280;60402;48.082;11.628;2023-03-01T12:22:38;95447.69;;;2.32;80.71
72409;BME280;60402;48.082;11.628;2023-03-01T12:31:14;95432.28;;;2.70;79.62
72409;BME280;60402;48.082;11.628;2023-03-01T12:44:06;95422.31;;;2.66;81.60
72409;BME280;60402;48.082;11.628;2023-03-01T12:49:22;95418.78;;;2.97;79.16
72409;BME280;60402;48.082;11.628;2023-03-01T12:52:02;95418.69;;;2.62;80.36
72409;BME280;60402;48.082;11.628;2023-03-01T12:54:35;95413.97;;;2.94;80.81
72409;BME280;60402;48.082;11.628;2023-03-01T12:57:24;95424.34;;;3.15;79.89
72409;BME280;60402;48.082;11.628;2023-03-01T13:02:54;95396.03;;;2.95;79.45
72409;BME280;60402;48.082;11.628;2023-03-01T13:05:29;95418.00;;;3.11;80.16
72409;BME280;60402;48.082;11.628;2023-03-01T13:10:56;95425.97;;;3.30;79.26
72409;BME280;60402;48.082;11.628;2023-03-01T13:13:26;95418.78;;;3.15;79.14
72409;BME280;60402;48.082;11.628;2023-03-01T13:15:52;95399.25;;;3.29;79.24
72409;BME280;60402;48.082;11.628;2023-03-01T13:20:58;95371.69;;;3.42;78.79
72409;BME280;60402;48.082;11.628;2023-03-01T13:23:30;95395.28;;;3.34;78.83
72409;BME280;60402;48.082;11.628;2023-03-01T13:30:56;95369.72;;;3.36;78.82
72409;BME280;60402;48.082;11.628;2023-03-01T13:35:55;95407.19;;;3.70;79.17
72409;BME280;60402;48.082;11.628;2023-03-01T13:46:43;95403.59;;;3.73;77.87
72409;BME280;60402;48.082;11.628;2023-03-01T13:49:13;95402.78;;;3.66;78.94
72409;BME280;60402;48.082;11.628;2023-03-01T13:51:39;95378.06;;;3.61;78.76
72409;BME280;60402;48.082;11.628;2023-03-01T13:54:05;95365.59;;;3.90;78.73
72409;BME280;60402;48.082;11.628;2023-03-01T13:56:36;95373.59;;;3.88;78.01
72409;BME280;60402;48.082;11.628;2023-03-01T13:59:05;95380.84;;;3.57;78.84
72409;BME280;60402;48.082;11.628;2023-03-01T14:01:34;95370.47;;;3.68;78.57
72409;BME280;60402;48.082;11.628;2023-03-01T14:04:16;95383.53;;;4.00;78.23
72409;BME280;60402;48.082;11.628;2023-03-01T14:06:43;95384.38;;;3.90;78.10
72409;BME280;60402;48.082;11.628;2023-03-01T14:09:16;95357.53;;;4.14;78.09
72409;BME280;60402;48.082;11.628;2023-03-01T14:14:43;95384.94;;;4.51;76.86
72409;BME280;60402;48.082;11.628;2023-03-01T14:17:55;95383.78;;;4.41;76.96
72409;BME280;60402;48.082;11.628;2023-03-01T14:20:26;95345.53;;;4.17;77.61
72409;BME280;60402;48.082;11.628;2023-03-01T14:22:55;95322.28;;;4.34;76.79
72409;BME280;60402;48.082;11.628;2023-03-01T14:25:29;95335.91;;;4.28;77.03
72409;BME280;60402;48.082;11.628;2023-03-01T14:27:56;95357.03;;;4.40;76.51